createdAt,value
2022-12-26T00:00:27.621Z,29.10
2022-12-26T00:03:17.028Z,27.65
2022-12-26T00:05:46.747Z,27.93
2022-12-26T00:08:16.241Z,29.35
2022-12-26T00:10:45.689Z,28.10
2022-12-26T00:13:39.875Z,26.90
2022-12-26T00:16:07.793Z,28.00
2022-12-26T00:21:06.275Z,26.60
2022-12-26T00:23:36.114Z,28.10
2022-12-26T00:26:06.379Z,27.43
2022-12-26T00:28:36.822Z,29.30
2022-12-26T00:31:07.420Z,28.90
2022-12-26T00:33:37.309Z,28.60
2022-12-26T00:36:08.831Z,27.27
2022-12-26T00:38:38.263Z,26.30
2022-12-26T00:41:08.299Z,26.00
2022-12-26T00:43:37.721Z,24.35
2022-12-26T00:46:07.654Z,23.83
2022-12-26T00:48:37.853Z,23.60
2022-12-26T00:51:07.273Z,21.80
2022-12-26T00:53:37.055Z,22.95
2022-12-26T00:56:07.019Z,21.30
2022-12-26T00:58:36.893Z,21.07
2022-12-26T01:01:08.207Z,21.10
2022-12-26T01:03:37.846Z,21.95
2022-12-26T01:06:07.584Z,20.85
2022-12-26T01:08:37.217Z,19.87
2022-12-26T01:11:08.160Z,20.90
2022-12-26T01:13:37.879Z,19.90
2022-12-26T01:16:07.993Z,20.75
2022-12-26T01:18:37.681Z,19.80
2022-12-26T01:21:08.742Z,20.00
2022-12-26T01:23:38.276Z,20.50
2022-12-26T01:26:18.577Z,21.25
2022-12-26T01:28:53.704Z,22.22
2022-12-26T01:31:23.759Z,21.15
2022-12-26T01:33:53.481Z,21.00
2022-12-26T01:36:26.585Z,20.35
2022-12-26T01:38:56.388Z,19.55
2022-12-26T01:41:26.413Z,18.75
2022-12-26T01:43:57.627Z,20.60
2022-12-26T01:46:28.981Z,21.45
2022-12-26T01:49:01.070Z,20.68
2022-12-26T01:51:34.111Z,20.50
2022-12-26T01:54:37.179Z,22.03
2022-12-26T01:56:54.666Z,22.10
2022-12-26T01:59:26.823Z,21.15
2022-12-26T02:01:56.367Z,20.75
2022-12-26T02:04:47.990Z,21.40
2022-12-26T02:07:17.545Z,20.85
2022-12-26T02:09:46.854Z,20.25
2022-12-26T02:12:34.977Z,20.10
2022-12-26T02:15:10.571Z,19.47
2022-12-26T02:17:40.854Z,19.80
2022-12-26T02:20:27.360Z,19.45
2022-12-26T02:23:05.817Z,18.85
2022-12-26T02:25:46.801Z,20.80
2022-12-26T02:28:25.884Z,18.43
2022-12-26T02:30:57.378Z,18.50
2022-12-26T02:33:41.053Z,18.10
2022-12-26T02:36:24.804Z,17.35
2022-12-26T02:39:03.058Z,18.50
2022-12-26T02:41:58.901Z,17.85
2022-12-26T02:44:49.421Z,18.35
2022-12-26T02:47:22.338Z,16.93
2022-12-26T02:50:17.634Z,18.45
2022-12-26T02:53:10.712Z,18.45
2022-12-26T02:56:00.427Z,18.20
2022-12-26T02:58:48.875Z,18.30
2022-12-26T03:01:41.100Z,18.53
2022-12-26T03:04:30.556Z,17.50
2022-12-26T03:07:19.875Z,17.75
2022-12-26T03:10:08.049Z,17.95
2022-12-26T03:12:58.441Z,18.60
2022-12-26T03:15:50.299Z,19.10
2022-12-26T03:18:57.789Z,18.95
2022-12-26T03:21:12.136Z,18.30
2022-12-26T03:23:43.384Z,19.00
2022-12-26T03:26:33.769Z,19.53
2022-12-26T03:29:19.133Z,19.95
2022-12-26T03:31:49.118Z,19.20
2022-12-26T03:34:18.643Z,20.77
2022-12-26T03:36:55.807Z,23.55
2022-12-26T03:39:54.211Z,26.95
2022-12-26T03:42:44.732Z,26.90
2022-12-26T03:45:47.423Z,25.37
2022-12-26T03:48:38.792Z,27.48
2022-12-26T03:51:28.646Z,27.37
2022-12-26T03:54:20.930Z,28.00
2022-12-26T03:57:11.059Z,27.95
2022-12-26T04:00:03.369Z,27.25
2022-12-26T04:03:01.993Z,28.15
2022-12-26T04:05:51.005Z,29.55
2022-12-26T04:08:42.352Z,30.00
2022-12-26T04:11:31.525Z,30.70
2022-12-26T04:14:23.300Z,31.50
2022-12-26T04:17:09.293Z,27.97
2022-12-26T04:19:48.534Z,30.33
2022-12-26T04:22:43.396Z,28.37
2022-12-26T04:25:50.861Z,26.90
2022-12-26T04:28:39.704Z,28.60
2022-12-26T04:31:29.245Z,26.95
2022-12-26T04:34:19.437Z,25.17
2022-12-26T04:37:09.463Z,26.75
2022-12-26T04:39:59.668Z,28.53
2022-12-26T04:42:48.560Z,25.05
2022-12-26T04:45:19.077Z,25.93
2022-12-26T04:48:04.114Z,27.83
2022-12-26T04:50:33.532Z,26.30
2022-12-26T04:53:03.081Z,28.10
2022-12-26T04:55:33.121Z,26.00
2022-12-26T04:58:02.492Z,27.55
2022-12-26T05:00:31.904Z,26.97
2022-12-26T05:03:20.722Z,27.85
2022-12-26T05:06:09.847Z,26.50
2022-12-26T05:08:59.092Z,26.37
2022-12-26T05:11:29.739Z,27.60
2022-12-26T05:13:59.814Z,26.65
2022-12-26T05:16:48.028Z,26.40
2022-12-26T05:19:36.422Z,26.40
2022-12-26T05:22:28.611Z,25.90
2022-12-26T05:25:21.468Z,27.75
2022-12-26T05:28:10.754Z,28.00
2022-12-26T05:30:40.939Z,29.40
2022-12-26T05:33:28.317Z,26.90
2022-12-26T05:35:58.150Z,26.53
2022-12-26T05:38:27.425Z,26.80
2022-12-26T05:40:56.901Z,27.30
2022-12-26T05:43:26.270Z,26.93
2022-12-26T05:45:55.850Z,26.25
2022-12-26T05:48:25.410Z,26.80
2022-12-26T05:50:57.774Z,26.55
2022-12-26T05:55:55.456Z,27.25
2022-12-26T05:58:24.742Z,27.10
2022-12-26T06:01:03.595Z,27.60
2022-12-26T06:03:34.941Z,26.53
2022-12-26T06:06:04.768Z,28.47
2022-12-26T06:08:34.224Z,28.85
2022-12-26T06:11:05.254Z,29.93
2022-12-26T06:13:38.122Z,30.35
2022-12-26T06:16:08.586Z,29.15
2022-12-26T06:18:38.102Z,29.75
2022-12-26T06:21:08.464Z,31.10
2022-12-26T06:23:38.159Z,29.00
2022-12-26T06:26:09.673Z,30.10
2022-12-26T06:28:40.018Z,28.70
2022-12-26T06:31:10.737Z,29.20
2022-12-26T06:33:40.307Z,28.10
2022-12-26T06:36:10.597Z,29.90
2022-12-26T06:38:40.039Z,29.45
2022-12-26T06:41:12.354Z,29.73
2022-12-26T06:43:41.694Z,29.80
2022-12-26T06:46:13.214Z,30.03
2022-12-26T06:48:43.167Z,29.25
2022-12-26T06:51:14.006Z,29.15
2022-12-26T06:53:44.500Z,29.00
2022-12-26T06:56:15.167Z,28.20
2022-12-26T06:58:45.182Z,28.90
2022-12-26T07:01:17.326Z,30.97
2022-12-26T07:03:51.622Z,29.30
2022-12-26T07:06:26.022Z,29.20
2022-12-26T07:08:58.259Z,30.40
2022-12-26T07:13:56.985Z,28.97
2022-12-26T07:16:27.107Z,31.40
2022-12-26T07:20:14.317Z,30.30
2022-12-26T07:22:52.284Z,29.23
2022-12-26T07:25:22.086Z,30.50
2022-12-26T07:27:53.861Z,29.40
2022-12-26T07:30:23.081Z,31.00
2022-12-26T07:32:52.524Z,30.60
2022-12-26T07:35:21.991Z,30.73
2022-12-26T07:37:52.124Z,30.73
2022-12-26T07:40:21.386Z,33.50
2022-12-26T07:42:54.240Z,31.35
2022-12-26T07:45:23.622Z,32.40
2022-12-26T07:47:53.921Z,31.95
2022-12-26T07:50:23.572Z,30.05
2022-12-26T07:52:54.518Z,30.03
2022-12-26T07:55:24.726Z,34.43
2022-12-26T07:57:54.192Z,32.55
2022-12-26T08:03:48.663Z,38.10
2022-12-26T08:06:20.534Z,41.53
2022-12-26T08:08:51.389Z,38.55
2022-12-26T08:11:22.503Z,37.20
2022-12-26T08:13:52.462Z,38.67
2022-12-26T08:16:21.793Z,35.83
2022-12-26T08:18:51.360Z,33.27
2022-12-26T08:21:21.847Z,34.70
2022-12-26T08:23:52.696Z,33.25
2022-12-26T08:26:23.278Z,34.25
2022-12-26T08:29:14.783Z,31.85
2022-12-26T08:32:28.747Z,31.20
2022-12-26T08:35:12.404Z,30.50
2022-12-26T08:37:41.682Z,31.75
2022-12-26T08:40:12.862Z,32.25
2022-12-26T08:42:56.266Z,32.05
2022-12-26T08:45:33.875Z,34.20
2022-12-26T08:48:03.961Z,32.40
2022-12-26T08:50:36.579Z,32.50
2022-12-26T08:53:10.712Z,29.95
2022-12-26T08:55:40.890Z,27.35
2022-12-26T08:58:10.741Z,27.80
2022-12-26T09:00:43.485Z,29.70
2022-12-26T09:03:12.964Z,26.45
2022-12-26T09:05:42.654Z,27.33
2022-12-26T09:08:12.435Z,28.10
2022-12-26T09:10:41.848Z,27.40
2022-12-26T09:13:19.157Z,28.80
2022-12-26T09:15:52.827Z,27.70
2022-12-26T09:18:22.863Z,28.45
2022-12-26T09:20:52.864Z,26.53
2022-12-26T09:23:22.525Z,26.93
2022-12-26T09:25:52.690Z,26.33
2022-12-26T09:28:51.475Z,27.40
2022-12-26T09:31:56.842Z,25.90
2022-12-26T09:50:48.920Z,19.30
2022-12-26T09:53:19.787Z,18.50
2022-12-26T09:55:53.078Z,19.43
2022-12-26T09:58:25.854Z,20.30
2022-12-26T10:00:58.833Z,17.70
2022-12-26T10:03:38.272Z,16.90
2022-12-26T10:06:12.912Z,17.65
2022-12-26T10:11:29.964Z,16.95
2022-12-26T10:14:28.136Z,16.45
2022-12-26T10:17:47.812Z,16.10
2022-12-26T10:20:35.579Z,16.87
2022-12-26T10:23:24.923Z,15.90
2022-12-26T10:29:21.641Z,17.10
2022-12-26T10:31:54.230Z,15.77
2022-12-26T10:34:25.863Z,16.30
2022-12-26T10:36:57.430Z,15.27
2022-12-26T10:39:28.524Z,15.72
2022-12-26T10:41:59.949Z,16.70
2022-12-26T10:44:29.290Z,17.00
2022-12-26T10:47:15.977Z,17.87
2022-12-26T10:49:46.064Z,15.43
2022-12-26T10:52:17.343Z,15.47
2022-12-26T10:54:47.993Z,16.60
2022-12-26T10:57:18.293Z,17.83
2022-12-26T10:59:48.945Z,16.70
2022-12-26T11:02:24.440Z,16.85
2022-12-26T11:05:27.173Z,16.03
2022-12-26T11:07:56.813Z,17.07
2022-12-26T11:10:28.233Z,18.03
2022-12-26T11:13:00.140Z,16.93
2022-12-26T11:15:31.968Z,13.28
2022-12-26T11:18:10.006Z,9.30
2022-12-26T11:20:39.905Z,9.47
2022-12-26T11:23:21.262Z,9.27
2022-12-26T11:29:06.374Z,9.80
2022-12-26T11:31:36.314Z,10.38
2022-12-26T11:34:09.143Z,9.28
2022-12-26T11:36:51.907Z,8.85
2022-12-26T11:39:23.238Z,8.68
2022-12-26T11:41:53.264Z,9.88
2022-12-26T11:47:16.133Z,9.55
2022-12-26T11:49:51.293Z,9.73
2022-12-26T11:52:43.961Z,10.13
2022-12-26T11:55:30.330Z,9.25
2022-12-26T11:58:06.626Z,9.95
2022-12-26T12:00:46.428Z,10.18
2022-12-26T12:03:26.007Z,11.03
2022-12-26T12:06:02.993Z,9.93
2022-12-26T12:12:04.367Z,8.38
2022-12-26T12:22:28.008Z,8.83
2022-12-26T12:59:16.163Z,10.83
2022-12-26T13:01:51.584Z,10.50
2022-12-26T13:04:24.700Z,11.05
2022-12-26T13:07:08.190Z,11.30
2022-12-26T13:10:00.877Z,12.30
2022-12-26T13:13:07.018Z,11.83
2022-12-26T13:22:56.885Z,13.65
2022-12-26T13:32:58.613Z,10.23
2022-12-26T13:35:52.621Z,10.50
2022-12-26T13:38:23.437Z,10.10
2022-12-26T13:43:44.215Z,11.68
2022-12-26T13:46:34.210Z,10.03
2022-12-26T13:58:09.079Z,11.48
2022-12-26T14:01:06.152Z,10.93
2022-12-26T14:04:47.567Z,11.38
2022-12-26T14:21:53.733Z,8.18
2022-12-26T14:25:24.900Z,6.85
2022-12-26T15:51:56.674Z,13.50
2022-12-26T15:58:40.462Z,14.20
2022-12-26T16:01:34.294Z,14.38
2022-12-26T16:26:20.410Z,21.50
2022-12-26T16:42:23.985Z,33.67
2022-12-26T16:48:27.744Z,33.48
2022-12-26T16:51:46.775Z,39.80
2022-12-26T16:54:46.653Z,40.95
2022-12-26T17:07:49.553Z,64.07
2022-12-26T17:16:35.027Z,96.75
2022-12-26T17:19:24.802Z,97.70
2022-12-26T17:22:14.272Z,76.45
2022-12-26T17:24:48.604Z,52.78
2022-12-26T17:28:00.082Z,38.75
2022-12-26T17:30:38.572Z,29.70
2022-12-26T17:33:16.579Z,25.88
2022-12-26T17:38:50.166Z,24.27
2022-12-26T17:52:28.923Z,32.33
2022-12-26T17:59:20.277Z,37.50
2022-12-26T18:01:49.956Z,43.10
2022-12-26T18:04:22.899Z,44.23
2022-12-26T18:06:53.259Z,47.30
2022-12-26T18:09:25.208Z,47.88
2022-12-26T18:11:55.333Z,42.93
2022-12-26T18:14:24.766Z,41.00
2022-12-26T18:16:54.635Z,41.23
2022-12-26T18:19:24.410Z,35.73
2022-12-26T18:21:53.972Z,33.67
2022-12-26T18:24:23.201Z,33.03
2022-12-26T18:26:52.559Z,34.63
2022-12-26T18:29:23.227Z,35.37
2022-12-26T18:31:52.798Z,35.90
2022-12-26T18:34:22.763Z,35.60
2022-12-26T18:36:53.775Z,32.63
2022-12-26T18:39:24.675Z,36.27
2022-12-26T18:41:54.840Z,42.35
2022-12-26T18:44:24.198Z,42.37
2022-12-26T18:46:54.854Z,40.80
2022-12-26T18:49:25.397Z,39.53
2022-12-26T18:51:54.761Z,37.03
2022-12-26T18:54:24.205Z,37.50
2022-12-26T18:56:53.544Z,39.30
2022-12-26T18:59:22.864Z,37.85
2022-12-26T19:01:52.445Z,38.77
2022-12-26T19:04:21.825Z,39.20
2022-12-26T19:06:52.962Z,37.65
2022-12-26T19:09:22.689Z,38.90
2022-12-26T19:11:52.186Z,40.83
2022-12-26T19:14:22.673Z,47.00
2022-12-26T19:16:52.190Z,43.37
2022-12-26T19:19:25.784Z,42.35
2022-12-26T19:21:55.581Z,41.95
2022-12-26T19:24:24.831Z,42.13
2022-12-26T19:26:54.262Z,40.85
2022-12-26T19:29:24.494Z,40.50
2022-12-26T19:31:55.868Z,41.00
2022-12-26T19:34:25.158Z,41.50
2022-12-26T19:36:54.481Z,43.75
2022-12-26T19:39:24.186Z,43.35
2022-12-26T19:41:54.171Z,41.67
2022-12-26T19:44:23.602Z,38.75
2022-12-26T19:47:12.056Z,34.50
2022-12-26T19:49:42.873Z,33.03
2022-12-26T19:52:12.507Z,31.95
2022-12-26T19:54:41.708Z,32.10
2022-12-26T19:57:11.079Z,32.30
2022-12-26T19:59:40.512Z,33.60
2022-12-26T20:02:11.199Z,31.45
2022-12-26T20:04:40.740Z,32.10
2022-12-26T20:07:10.078Z,32.60
2022-12-26T20:09:39.444Z,30.20
2022-12-26T20:12:08.825Z,29.70
2022-12-26T20:14:39.812Z,29.15
2022-12-26T20:17:11.928Z,31.75
2022-12-26T20:19:43.456Z,38.17
2022-12-26T20:22:13.114Z,37.83
2022-12-26T20:24:42.242Z,34.57
2022-12-26T20:27:11.589Z,31.67
2022-12-26T20:29:40.960Z,31.85
2022-12-26T20:32:10.268Z,30.50
2022-12-26T20:34:39.797Z,30.67
2022-12-26T20:37:09.062Z,30.05
2022-12-26T20:39:38.836Z,30.70
2022-12-26T20:42:08.059Z,29.67
2022-12-26T20:44:40.917Z,30.95
2022-12-26T20:47:10.305Z,28.30
2022-12-26T20:49:39.795Z,34.75
2022-12-26T20:52:09.239Z,35.60
2022-12-26T20:54:38.588Z,36.45
2022-12-26T20:57:07.846Z,34.37
2022-12-26T20:59:37.185Z,33.10
2022-12-26T21:02:06.648Z,33.13
2022-12-26T21:04:36.397Z,30.90
2022-12-26T21:07:05.799Z,31.40
2022-12-26T21:09:40.972Z,31.35
2022-12-26T21:12:15.896Z,30.35
2022-12-26T21:14:45.966Z,30.93
2022-12-26T21:17:18.201Z,30.40
2022-12-26T21:19:47.466Z,29.87
2022-12-26T21:22:16.913Z,29.85
2022-12-26T21:24:46.674Z,29.30
2022-12-26T21:27:16.049Z,28.95
2022-12-26T21:29:45.568Z,29.30
2022-12-26T21:32:14.931Z,30.30
2022-12-26T21:34:44.925Z,29.05
2022-12-26T21:37:32.648Z,29.05
2022-12-26T21:40:01.971Z,30.30
2022-12-26T21:42:31.708Z,35.30
2022-12-26T21:45:00.916Z,47.25
2022-12-26T21:47:30.735Z,51.15
2022-12-26T21:50:00.428Z,52.45
2022-12-26T21:52:29.958Z,52.30
2022-12-26T21:55:17.452Z,51.93
2022-12-26T21:57:46.744Z,44.50
2022-12-26T22:00:17.064Z,43.50
2022-12-26T22:03:04.916Z,39.15
2022-12-26T22:05:36.420Z,40.85
2022-12-26T22:08:08.293Z,40.07
2022-12-26T22:10:57.549Z,42.25
2022-12-26T22:13:27.005Z,43.30
2022-12-26T22:16:06.994Z,41.40
2022-12-26T22:18:38.571Z,34.40
2022-12-26T22:21:09.428Z,33.90
2022-12-26T22:23:39.494Z,31.15
2022-12-26T22:26:10.549Z,30.35
2022-12-26T22:28:40.403Z,29.45
2022-12-26T22:31:16.903Z,28.35
2022-12-26T22:33:46.673Z,30.13
2022-12-26T22:36:16.010Z,28.97
2022-12-26T22:38:45.337Z,28.70
2022-12-26T22:41:15.901Z,28.75
2022-12-26T22:43:46.889Z,30.30
2022-12-26T22:46:16.454Z,28.03
2022-12-26T22:48:45.735Z,27.25
2022-12-26T22:51:17.087Z,27.50
2022-12-26T22:53:47.128Z,29.53
2022-12-26T22:56:16.398Z,29.05
2022-12-26T22:58:45.652Z,29.90
2022-12-26T23:01:15.773Z,29.80
2022-12-26T23:03:46.077Z,30.10
2022-12-26T23:06:22.665Z,28.50
2022-12-26T23:08:54.481Z,27.45
2022-12-26T23:11:28.799Z,26.70
2022-12-26T23:14:05.069Z,27.57
2022-12-26T23:16:38.307Z,26.75
2022-12-26T23:19:30.562Z,25.65
2022-12-26T23:22:00.897Z,25.82
2022-12-26T23:24:31.500Z,25.95
2022-12-26T23:27:21.884Z,26.90
2022-12-26T23:30:10.095Z,26.07
2022-12-26T23:32:40.204Z,26.95
2022-12-26T23:35:10.457Z,26.70
2022-12-26T23:37:40.204Z,26.10
2022-12-26T23:40:11.497Z,27.47
2022-12-26T23:42:41.305Z,26.50
2022-12-26T23:45:11.627Z,27.30
2022-12-26T23:47:42.251Z,26.50
2022-12-26T23:50:12.254Z,27.15
2022-12-26T23:52:41.895Z,27.30
2022-12-26T23:55:11.840Z,27.73
2022-12-26T23:57:41.226Z,26.55
